Time;durP1;ratioP1;P1;durP2;ratioP2;P2;SDS_P1;SDS_P2;PMS_P1;PMS_P2;Temp;Humidity;BMP_temperature;BMP_pressure;BME280_temperature;BME280_humidity;BME280_pressure;Samples;Min_cycle;Max_cycle;Signal;HPM_P1;HPM_P2
2022/11/02 00:03:15;;;;;;;62.72;30.83;;;;;;;;;;6224028;22;20008;-87
2022/11/02 00:05:40;;;;;;;53.35;30.27;;;;;;;;;;6230749;23;20089;-88
2022/11/02 00:08:06;;;;;;;54.88;32.28;;;;;;;;;;6220832;23;20087;-88
2022/11/02 00:10:31;;;;;;;55.10;31.40;;;;;;;;;;6219235;23;20005;-87
2022/11/02 00:12:56;;;;;;;61.53;32.10;;;;;;;;;;6245841;23;19996;-87
2022/11/02 00:15:23;;;;;;;65.38;32.80;;;;;;;;;;6195193;23;20050;-89
2022/11/02 00:17:50;;;;;;;61.83;31.92;;;;;;;;;;6194410;23;20000;-87
2022/11/02 00:20:16;;;;;;;63.40;33.38;;;;;;;;;;6194175;23;20123;-87
2022/11/02 00:22:44;;;;;;;54.80;31.98;;;;;;;;;;6193583;23;20007;-87
2022/11/02 00:25:11;;;;;;;64.18;31.10;;;;;;;;;;6232043;23;20004;-87
2022/11/02 00:27:39;;;;;;;56.03;30.92;;;;;;;;;;6222264;23;20508;-87
2022/11/02 00:30:05;;;;;;;62.67;31.65;;;;;;;;;;6219841;23;20004;-87
2022/11/02 00:32:31;;;;;;;60.97;32.25;;;;;;;;;;6219427;23;20010;-87
2022/11/02 00:34:56;;;;;;;61.90;31.35;;;;;;;;;;6197250;23;20036;-88
2022/11/02 00:37:22;;;;;;;60.17;31.02;;;;;;;;;;6193691;23;20000;-87
2022/11/02 00:39:47;;;;;;;59.03;30.88;;;;;;;;;;6245420;23;20008;-87
2022/11/02 00:42:13;;;;;;;55.33;30.40;;;;;;;;;;6193354;23;20095;-88
2022/11/02 00:44:38;;;;;;;56.67;30.48;;;;;;;;;;6193932;23;20000;-88
2022/11/02 00:47:04;;;;;;;59.70;28.92;;;;;;;;;;6239159;23;20004;-87
2022/11/02 00:49:30;;;;;;;57.38;29.55;;;;;;;;;;6195623;23;20008;-88
2022/11/02 00:51:55;;;;;;;57.55;29.17;;;;;;;;;;6243862;23;20008;-87
2022/11/02 00:54:20;;;;;;;49.85;28.67;;;;;;;;;;6245160;23;20428;-88
2022/11/02 00:56:46;;;;;;;64.55;28.92;;;;;;;;;;6219307;23;20004;-87
2022/11/02 00:59:11;;;;;;;55.63;28.83;;;;;;;;;;6247515;23;20004;-86
2022/11/02 01:01:37;;;;;;;52.35;29.73;;;;;;;;;;6200198;23;20331;-87
2022/11/02 01:04:03;;;;;;;66.45;29.55;;;;;;;;;;6193376;23;20091;-86
2022/11/02 01:06:28;;;;;;;50.70;28.63;;;;;;;;;;6224990;23;20011;-88
2022/11/02 01:08:54;;;;;;;51.53;28.73;;;;;;;;;;6249487;23;20415;-86
2022/11/02 01:11:22;;;;;;;55.47;29.02;;;;;;;;;;6218518;23;20000;-87
2022/11/02 01:13:51;;;;;;;53.53;27.85;;;;;;;;;;6177699;23;20015;-88
2022/11/02 01:16:16;;;;;;;57.47;28.88;;;;;;;;;;6217798;23;20368;-88
2022/11/02 01:18:44;;;;;;;59.22;29.10;;;;;;;;;;6218713;23;20028;-87
2022/11/02 01:21:10;;;;;;;56.88;29.83;;;;;;;;;;6218377;23;20103;-87
2022/11/02 01:23:36;;;;;;;57.00;29.77;;;;;;;;;;6192916;23;20003;-87
2022/11/02 01:26:03;;;;;;;52.78;30.33;;;;;;;;;;6217803;23;20004;-87
2022/11/02 01:28:29;;;;;;;54.92;29.75;;;;;;;;;;6225397;23;20000;-87
2022/11/02 01:30:54;;;;;;;56.42;30.50;;;;;;;;;;6198860;23;20004;-87
2022/11/02 01:33:19;;;;;;;56.42;30.02;;;;;;;;;;6226347;23;20007;-88
2022/11/02 01:35:45;;;;;;;60.13;29.92;;;;;;;;;;6244993;23;20093;-88
2022/11/02 01:38:10;;;;;;;55.38;30.60;;;;;;;;;;6245282;23;19996;-87
2022/11/02 01:40:39;;;;;;;54.20;31.17;;;;;;;;;;6244938;23;20011;-88
2022/11/02 01:43:30;;;;;;;56.63;30.15;;;;;;;;;;6217443;23;20000;-87
2022/11/02 01:45:59;;;;;;;;;;;;;;;;;;6218755;23;20004;-88
2022/11/02 01:48:36;;;;;;;53.97;29.10;;;;;;;;;;6224907;23;19899;-87
2022/11/02 01:51:05;;;;;;;51.67;29.02;;;;;;;;;;6204999;23;20407;-85
2022/11/02 01:53:30;;;;;;;60.58;30.08;;;;;;;;;;6199172;23;20015;-87
2022/11/02 01:55:56;;;;;;;61.38;30.40;;;;;;;;;;6245406;23;20012;-87
2022/11/02 01:58:22;;;;;;;60.20;30.90;;;;;;;;;;6193538;23;20348;-87
2022/11/02 02:00:47;;;;;;;62.88;31.33;;;;;;;;;;6168256;23;20011;-88
2022/11/02 02:03:17;;;;;;;61.58;31.17;;;;;;;;;;6218052;23;20008;-88
2022/11/02 02:05:48;;;;;;;66.28;33.47;;;;;;;;;;6218541;23;20414;-87
2022/11/02 02:08:16;;;;;;;65.35;31.10;;;;;;;;;;6193836;23;19992;-87
2022/11/02 02:10:41;;;;;;;70.00;31.95;;;;;;;;;;6208512;23;20027;-86
2022/11/02 02:13:07;;;;;;;63.08;32.10;;;;;;;;;;6202012;23;20450;-88
2022/11/02 02:16:06;;;;;;;68.13;32.92;;;;;;;;;;6246559;23;20051;-87
2022/11/02 02:18:34;;;;;;;61.17;32.20;;;;;;;;;;6245598;23;20022;-87
2022/11/02 02:21:31;;;;;;;64.85;32.28;;;;;;;;;;6219197;23;20004;-87
2022/11/02 02:24:31;;;;;;;64.45;33.55;;;;;;;;;;6178772;23;20015;-87
2022/11/02 02:32:48;;;;;;;65.32;32.90;;;;;;;;;;6256515;22;20020;-88
2022/11/02 02:35:45;;;;;;;66.03;32.30;;;;;;;;;;6218906;23;20083;-87
2022/11/02 02:38:14;;;;;;;62.78;32.30;;;;;;;;;;6217872;23;20434;-86
2022/11/02 02:40:55;;;;;;;65.25;34.17;;;;;;;;;;6193418;23;20019;-87
2022/11/02 02:43:49;;;;;;;68.60;33.03;;;;;;;;;;6222097;23;20004;-88
2022/11/02 02:46:25;;;;;;;64.65;32.67;;;;;;;;;;6219071;23;20004;-87
2022/11/02 02:48:51;;;;;;;63.83;32.75;;;;;;;;;;6201995;23;20000;-88
2022/11/02 02:51:30;;;;;;;58.17;33.10;;;;;;;;;;6214084;23;20073;-87
2022/11/02 02:54:05;;;;;;;59.70;31.75;;;;;;;;;;6220445;23;20008;-87
2022/11/02 02:56:38;;;;;;;64.50;31.38;;;;;;;;;;6168177;23;20103;-88
2022/11/02 02:59:05;;;;;;;55.47;30.88;;;;;;;;;;6218053;23;20083;-87
2022/11/02 03:01:31;;;;;;;55.55;30.63;;;;;;;;;;6193354;23;20008;-88
2022/11/02 03:03:56;;;;;;;59.90;29.85;;;;;;;;;;6217839;23;20075;-87
2022/11/02 03:06:28;;;;;;;61.15;29.13;;;;;;;;;;6244717;23;20000;-88
2022/11/02 03:09:14;;;;;;;52.10;29.40;;;;;;;;;;6202915;23;20004;-87
2022/11/02 03:11:52;;;;;;;52.88;29.02;;;;;;;;;;6198863;23;20051;-87
2022/11/02 03:14:17;;;;;;;53.67;30.38;;;;;;;;;;6222509;23;20031;-88
2022/11/02 03:16:43;;;;;;;61.10;31.25;;;;;;;;;;6220413;23;20004;-88
2022/11/02 03:19:38;;;;;;;59.75;31.75;;;;;;;;;;6245022;23;20428;-87
2022/11/02 03:22:06;;;;;;;59.38;30.10;;;;;;;;;;6217100;23;20087;-88
2022/11/02 03:24:39;;;;;;;51.50;29.10;;;;;;;;;;6193062;23;20035;-89
2022/11/02 03:27:16;;;;;;;54.33;30.42;;;;;;;;;;6223247;23;19992;-89
2022/11/02 03:29:52;;;;;;;48.97;28.38;;;;;;;;;;6223528;23;20082;-88
2022/11/02 03:32:35;;;;;;;52.30;28.38;;;;;;;;;;6208006;23;20019;-88
2022/11/02 03:35:02;;;;;;;53.10;28.25;;;;;;;;;;6199284;23;20008;-88
2022/11/02 03:37:40;;;;;;;48.58;27.60;;;;;;;;;;6167214;23;20012;-88
2022/11/02 03:40:12;;;;;;;48.83;26.58;;;;;;;;;;6193586;23;20059;-87
2022/11/02 03:42:37;;;;;;;43.15;26.42;;;;;;;;;;6217649;23;20000;-87
2022/11/02 03:45:24;;;;;;;44.08;25.90;;;;;;;;;;6192429;23;20038;-87
2022/11/02 03:47:53;;;;;;;44.63;24.40;;;;;;;;;;6224307;23;20027;-87
2022/11/02 03:50:20;;;;;;;49.20;25.40;;;;;;;;;;6220613;23;20004;-87
2022/11/02 03:53:34;;;;;;;49.05;24.38;;;;;;;;;;6228419;23;20000;-88
2022/11/02 03:56:36;;;;;;;44.38;23.92;;;;;;;;;;6097701;23;20010;-88
2022/11/02 03:59:02;;;;;;;44.67;24.02;;;;;;;;;;6076486;23;20077;-87
2022/11/02 04:01:28;;;;;;;45.63;24.42;;;;;;;;;;6219790;23;20343;-87
2022/11/02 04:03:53;;;;;;;40.30;23.63;;;;;;;;;;6169689;23;20091;-87
2022/11/02 04:06:19;;;;;;;49.67;24.35;;;;;;;;;;6204522;23;20032;-88
2022/11/02 04:08:45;;;;;;;46.70;24.48;;;;;;;;;;6195958;23;20444;-87
2022/11/02 04:16:39;;;;;;;44.08;23.77;;;;;;;;;;6230643;23;20092;-87
2022/11/02 04:27:18;;;;;;;49.90;24.08;;;;;;;;;;6255871;23;20057;-87
2022/11/02 04:30:23;;;;;;;48.45;25.85;;;;;;;;;;6218773;23;20445;-87
2022/11/02 04:35:36;;;;;;;52.80;27.98;;;;;;;;;;6199026;23;20016;-86
2022/11/02 04:41:42;;;;;;;58.05;29.77;;;;;;;;;;6193395;23;20016;-86
2022/11/02 04:44:13;;;;;;;60.60;30.23;;;;;;;;;;6195568;23;20008;-87
2022/11/02 04:46:38;;;;;;;;;;;;;;;;;;6149201;23;20005;-87
2022/11/02 04:49:07;;;;;;;53.47;28.75;;;;;;;;;;6188125;23;19915;-87
2022/11/02 04:51:33;;;;;;;58.97;30.17;;;;;;;;;;6163873;23;20005;-87
2022/11/02 04:53:58;;;;;;;55.13;30.23;;;;;;;;;;6188638;23;20007;-87
2022/11/02 04:56:25;;;;;;;54.65;28.92;;;;;;;;;;6171455;23;20055;-88
2022/11/02 04:58:51;;;;;;;58.75;30.42;;;;;;;;;;6195899;23;20000;-87
2022/11/02 05:01:17;;;;;;;56.22;30.33;;;;;;;;;;6189159;23;20036;-88
2022/11/02 05:03:45;;;;;;;56.28;30.13;;;;;;;;;;6224136;23;20084;-85
2022/11/02 05:06:13;;;;;;;70.22;35.60;;;;;;;;;;6188665;23;20088;-85
2022/11/02 05:08:39;;;;;;;55.97;31.98;;;;;;;;;;6214509;23;20008;-85
2022/11/02 05:11:04;;;;;;;78.35;37.08;;;;;;;;;;6187356;23;19996;-85
2022/11/02 05:13:30;;;;;;;77.05;39.10;;;;;;;;;;6188226;23;20008;-84
2022/11/02 05:15:56;;;;;;;59.97;36.10;;;;;;;;;;6214095;23;20005;-82
2022/11/02 05:18:30;;;;;;;71.90;37.55;;;;;;;;;;6199454;23;20027;-83
2022/11/02 05:20:57;;;;;;;70.13;34.67;;;;;;;;;;6188141;23;20001;-84
2022/11/02 05:23:23;;;;;;;70.60;34.42;;;;;;;;;;6162945;23;20005;-84
2022/11/02 05:25:56;;;;;;;60.83;32.95;;;;;;;;;;6138192;23;20099;-85
2022/11/02 05:28:21;;;;;;;58.28;30.60;;;;;;;;;;6188821;23;20083;-84
2022/11/02 05:30:47;;;;;;;59.90;29.90;;;;;;;;;;6187755;23;20005;-82
2022/11/02 05:33:12;;;;;;;68.50;33.13;;;;;;;;;;6216316;23;20000;-84
2022/11/02 05:35:37;;;;;;;78.80;32.58;;;;;;;;;;6213780;23;20432;-84
2022/11/02 05:38:03;;;;;;;64.50;31.77;;;;;;;;;;6221215;23;20001;-81
2022/11/02 05:40:28;;;;;;;69.20;31.88;;;;;;;;;;6223372;23;20023;-81
2022/11/02 05:43:00;;;;;;;63.25;31.65;;;;;;;;;;6215760;23;20004;-83
2022/11/02 05:45:29;;;;;;;63.28;32.97;;;;;;;;;;6210073;23;20087;-85
2022/11/02 05:47:55;;;;;;;63.13;31.45;;;;;;;;;;6188424;23;20008;-83
2022/11/02 05:56:02;;;;;;;;;;;;;;;;;;;;;
2022/11/02 05:59:00;;;;;;;;;;;;;;;;;;;;;
2022/11/02 06:07:56;;;;;;;82.63;36.78;;;;;;;;;;6078338;23;20101;-85
2022/11/02 06:11:01;;;;;;;;;;;;;;;;;;;;;
2022/11/02 06:13:32;;;;;;;78.30;38.13;;;;;;;;;;6098286;23;20041;-84
2022/11/02 06:16:08;;;;;;;;;;;;;;;;;;6078821;23;20006;-84
2022/11/02 06:18:35;;;;;;;71.78;36.25;;;;;;;;;;6121070;23;19945;-83
2022/11/02 06:21:07;;;;;;;67.63;34.08;;;;;;;;;;6205164;23;20138;-84
2022/11/02 06:23:32;;;;;;;68.75;35.90;;;;;;;;;;6190472;23;20076;-84
2022/11/02 06:25:58;;;;;;;62.38;35.13;;;;;;;;;;6214529;23;20008;-82
2022/11/02 06:28:24;;;;;;;69.28;34.78;;;;;;;;;;6214411;23;20011;-83
2022/11/02 06:30:49;;;;;;;68.75;33.47;;;;;;;;;;6215167;23;20004;-84
2022/11/02 06:33:15;;;;;;;67.35;31.67;;;;;;;;;;6218145;23;20024;-83
2022/11/02 06:35:50;;;;;;;69.97;31.23;;;;;;;;;;6217022;23;20027;-81
2022/11/02 06:38:17;;;;;;;69.40;32.42;;;;;;;;;;6188684;23;20016;-83
2022/11/02 06:40:43;;;;;;;81.00;32.10;;;;;;;;;;6218325;23;20012;-86
2022/11/02 06:43:14;;;;;;;91.28;32.15;;;;;;;;;;6215116;22;20012;-88
2022/11/02 06:51:38;;;;;;;87.63;33.30;;;;;;;;;;6220634;22;20046;-90
2022/11/02 06:54:16;;;;;;;67.10;32.08;;;;;;;;;;6261566;23;20075;-90
2022/11/02 07:02:28;;;;;;;67.93;31.70;;;;;;;;;;6223743;22;20016;-88
2022/11/02 07:04:54;;;;;;;67.18;31.30;;;;;;;;;;6242781;22;19996;-87
2022/11/02 07:07:21;;;;;;;55.50;29.98;;;;;;;;;;6190303;23;20011;-89
2022/11/02 07:09:47;;;;;;;59.55;30.17;;;;;;;;;;6197343;23;20009;-88
2022/11/02 07:12:13;;;;;;;55.38;29.27;;;;;;;;;;6173969;23;20040;-88
2022/11/02 07:14:38;;;;;;;58.53;27.75;;;;;;;;;;6197492;23;20013;-90
2022/11/02 07:17:05;;;;;;;55.58;27.08;;;;;;;;;;6170476;23;20102;-89
2022/11/02 07:19:31;;;;;;;52.72;27.80;;;;;;;;;;6195990;23;20009;-87
2022/11/02 07:22:03;;;;;;;48.30;26.42;;;;;;;;;;6176334;23;20060;-88
2022/11/02 07:24:29;;;;;;;57.00;27.50;;;;;;;;;;6232287;22;20093;-89
2022/11/02 07:26:55;;;;;;;52.03;28.30;;;;;;;;;;6199989;23;20020;-90
2022/11/02 07:29:22;;;;;;;57.67;25.10;;;;;;;;;;6186528;22;20004;-88
2022/11/02 07:31:48;;;;;;;45.90;25.05;;;;;;;;;;6204815;23;20004;-89
2022/11/02 07:34:46;;;;;;;54.53;25.20;;;;;;;;;;6210426;22;20092;-89
2022/11/02 07:37:14;;;;;;;49.90;25.27;;;;;;;;;;6206276;23;20066;-90
2022/11/02 07:40:04;;;;;;;56.38;24.05;;;;;;;;;;6182561;23;20009;-88
2022/11/02 07:42:31;;;;;;;46.60;24.08;;;;;;;;;;6208810;23;20009;-89
2022/11/02 07:45:03;;;;;;;49.78;22.88;;;;;;;;;;6163342;22;20031;-90
2022/11/02 07:47:49;;;;;;;48.60;24.98;;;;;;;;;;6240510;22;20008;-89
2022/11/02 07:51:26;;;;;;;51.72;25.23;;;;;;;;;;6152779;23;20001;-90
2022/11/02 07:53:46;;;;;;;;;;;;;;;;;;;;;
2022/11/02 07:56:15;;;;;;;42.38;22.02;;;;;;;;;;6180134;23;20001;-86
2022/11/02 07:58:43;;;;;;;44.60;22.35;;;;;;;;;;6130585;23;20140;-88
2022/11/02 08:01:42;;;;;;;44.15;23.35;;;;;;;;;;6126746;23;20092;-88
2022/11/02 08:04:08;;;;;;;50.37;21.30;;;;;;;;;;6167931;23;20021;-86
2022/11/02 08:06:52;;;;;;;50.42;21.73;;;;;;;;;;6177671;23;20012;-87
2022/11/02 08:10:08;;;;;;;41.28;21.80;;;;;;;;;;6172279;23;20024;-88
2022/11/02 08:12:36;;;;;;;43.08;22.20;;;;;;;;;;6104614;23;20085;-87
2022/11/02 08:15:05;;;;;;;37.63;22.33;;;;;;;;;;6048094;23;20026;-87
2022/11/02 08:17:31;;;;;;;39.22;22.35;;;;;;;;;;6125403;23;20016;-86
2022/11/02 08:19:58;;;;;;;42.30;23.10;;;;;;;;;;6188168;23;20014;-87
2022/11/02 08:22:23;;;;;;;49.50;22.75;;;;;;;;;;6143789;23;20009;-87
2022/11/02 08:25:12;;;;;;;45.05;22.00;;;;;;;;;;6143255;23;20041;-87
2022/11/02 08:27:43;;;;;;;54.38;23.70;;;;;;;;;;6199107;22;20026;-87
2022/11/02 08:30:10;;;;;;;;;;;;;;;;;;6242374;23;20099;-86
2022/11/02 08:32:41;;;;;;;49.38;24.27;;;;;;;;;;6265243;23;19907;-85
2022/11/02 08:35:07;;;;;;;57.67;24.60;;;;;;;;;;6242343;23;20015;-87
2022/11/02 08:37:32;;;;;;;63.47;25.38;;;;;;;;;;6261824;22;20008;-89
2022/11/02 08:40:02;;;;;;;65.80;26.25;;;;;;;;;;6237553;23;19993;-89
2022/11/02 08:42:31;;;;;;;53.35;25.55;;;;;;;;;;6261688;23;20008;-88
2022/11/02 08:45:01;;;;;;;53.42;25.92;;;;;;;;;;6283015;22;20521;-90
2022/11/02 08:47:36;;;;;;;55.75;22.90;;;;;;;;;;6234003;23;20015;-90
2022/11/02 08:50:02;;;;;;;57.35;23.13;;;;;;;;;;6267692;22;20004;-87
2022/11/02 08:52:27;;;;;;;54.75;25.85;;;;;;;;;;6259835;22;20004;-84
2022/11/02 08:55:11;;;;;;;55.03;24.48;;;;;;;;;;6203939;23;20023;-84
2022/11/02 08:58:05;;;;;;;53.60;24.17;;;;;;;;;;6233432;22;20016;-84
2022/11/02 09:00:32;;;;;;;59.58;24.38;;;;;;;;;;6209852;23;20408;-86
2022/11/02 09:06:19;;;;;;;60.95;22.70;;;;;;;;;;6246662;22;20042;-85
2022/11/02 09:08:44;;;;;;;64.97;22.05;;;;;;;;;;6280502;22;20004;-85
2022/11/02 09:11:10;;;;;;;55.97;22.23;;;;;;;;;;6293428;22;20049;-86
2022/11/02 09:13:36;;;;;;;52.22;22.92;;;;;;;;;;6283638;22;20003;-88
2022/11/02 09:16:02;;;;;;;53.20;21.90;;;;;;;;;;6292869;22;20018;-87
2022/11/02 09:18:31;;;;;;;52.05;20.00;;;;;;;;;;6297595;22;19995;-91
2022/11/02 09:21:05;;;;;;;37.00;16.25;;;;;;;;;;6265984;22;20076;-85
2022/11/02 09:23:40;;;;;;;42.95;16.40;;;;;;;;;;6287086;22;20010;-86
2022/11/02 09:26:17;;;;;;;50.97;16.70;;;;;;;;;;6292582;22;20007;-87
2022/11/02 09:28:46;;;;;;;45.85;16.90;;;;;;;;;;6296060;22;19999;-86
2022/11/02 09:31:16;;;;;;;48.47;17.52;;;;;;;;;;6292080;22;20008;-88
2022/11/02 09:33:50;;;;;;;26.05;9.27;;;;;;;;;;6289712;22;20347;-89
2022/11/02 09:36:16;;;;;;;28.33;10.18;;;;;;;;;;6282903;22;20368;-87
2022/11/02 09:38:41;;;;;;;39.45;10.85;;;;;;;;;;6283125;22;20011;-86
2022/11/02 09:41:30;;;;;;;31.88;8.25;;;;;;;;;;6233710;22;20025;-87
2022/11/02 09:44:35;;;;;;;34.30;8.70;;;;;;;;;;6287527;22;20015;-87
2022/11/02 09:47:03;;;;;;;23.17;7.78;;;;;;;;;;6293263;22;20010;-87
2022/11/02 09:49:29;;;;;;;27.83;8.40;;;;;;;;;;6286738;22;20102;-86
2022/11/02 09:51:58;;;;;;;30.05;9.27;;;;;;;;;;6287665;22;19999;-84
2022/11/02 09:54:33;;;;;;;29.55;8.75;;;;;;;;;;6258402;22;20007;-85
2022/11/02 09:57:44;;;;;;;24.48;8.65;;;;;;;;;;6263564;22;19994;-87
2022/11/02 10:00:22;;;;;;;35.42;8.63;;;;;;;;;;6232090;22;20042;-87
2022/11/02 10:03:00;;;;;;;18.80;7.25;;;;;;;;;;6279736;22;20010;-86
2022/11/02 10:05:28;;;;;;;26.17;7.75;;;;;;;;;;6279895;22;20004;-85
2022/11/02 10:08:18;;;;;;;27.20;7.47;;;;;;;;;;6278916;22;20200;-85
2022/11/02 10:11:24;;;;;;;31.92;7.32;;;;;;;;;;6258947;22;20374;-87
2022/11/02 10:17:11;;;;;;;21.40;6.97;;;;;;;;;;6240837;22;20027;-80
2022/11/02 10:19:41;;;;;;;19.58;7.07;;;;;;;;;;6215140;23;20004;-80
2022/11/02 10:22:10;;;;;;;17.85;7.38;;;;;;;;;;6216627;23;20000;-78
2022/11/02 10:24:42;;;;;;;38.47;8.88;;;;;;;;;;6196561;23;20000;-82
2022/11/02 10:27:19;;;;;;;25.15;7.57;;;;;;;;;;6215456;23;20032;-79
2022/11/02 10:29:51;;;;;;;19.25;7.03;;;;;;;;;;6217322;23;20004;-79
2022/11/02 10:32:23;;;;;;;32.60;7.30;;;;;;;;;;6242095;23;20195;-78
2022/11/02 10:34:48;;;;;;;21.40;7.35;;;;;;;;;;6243718;23;20083;-78
2022/11/02 10:37:32;;;;;;;19.27;7.15;;;;;;;;;;6216563;23;20576;-78
2022/11/02 10:40:04;;;;;;;24.80;6.72;;;;;;;;;;6240622;23;20000;-79
2022/11/02 10:42:45;;;;;;;22.85;6.90;;;;;;;;;;6242916;23;20075;-81
2022/11/02 10:45:48;;;;;;;30.35;8.00;;;;;;;;;;6239994;23;20008;-79
2022/11/02 10:48:19;;;;;;;36.70;8.02;;;;;;;;;;6241094;23;20001;-80
2022/11/02 10:50:55;;;;;;;25.67;7.60;;;;;;;;;;6246377;23;20006;-83
2022/11/02 10:53:21;;;;;;;24.30;7.63;;;;;;;;;;6240859;23;20011;-82
2022/11/02 10:55:57;;;;;;;30.15;8.50;;;;;;;;;;6242149;23;20000;-80
2022/11/02 10:58:22;;;;;;;26.55;8.02;;;;;;;;;;6241971;23;20431;-79
2022/11/02 11:00:48;;;;;;;22.83;7.68;;;;;;;;;;6268338;22;20027;-78
2022/11/02 11:03:15;;;;;;;38.95;9.27;;;;;;;;;;6244445;23;20193;-80
2022/11/02 11:06:03;;;;;;;27.55;8.50;;;;;;;;;;6241219;22;20047;-79
2022/11/02 11:08:38;;;;;;;31.27;9.85;;;;;;;;;;6242922;22;20000;-79
2022/11/02 11:11:10;;;;;;;27.10;8.23;;;;;;;;;;6215503;23;20469;-77
2022/11/02 11:13:35;;;;;;;28.55;6.82;;;;;;;;;;6216870;23;20011;-81
2022/11/02 11:16:02;;;;;;;19.23;6.57;;;;;;;;;;6215790;23;20008;-78
2022/11/02 11:18:27;;;;;;;28.48;7.47;;;;;;;;;;6218515;23;20004;-79
2022/11/02 11:20:53;;;;;;;33.05;6.75;;;;;;;;;;6245334;23;20004;-79
2022/11/02 11:23:18;;;;;;;27.23;6.30;;;;;;;;;;6218825;23;20000;-80
2022/11/02 11:26:01;;;;;;;26.42;6.47;;;;;;;;;;6245153;22;20003;-81
2022/11/02 11:28:29;;;;;;;27.02;6.40;;;;;;;;;;6246398;22;20000;-80
2022/11/02 11:31:08;;;;;;;16.85;6.03;;;;;;;;;;6219988;23;20354;-79
2022/11/02 11:33:44;;;;;;;28.88;6.28;;;;;;;;;;6243672;23;20027;-81
2022/11/02 11:36:30;;;;;;;23.35;6.70;;;;;;;;;;6242706;23;20022;-82
2022/11/02 11:39:04;;;;;;;32.13;6.78;;;;;;;;;;6223253;23;20004;-80
2022/11/02 11:41:30;;;;;;;28.67;6.18;;;;;;;;;;6242656;23;20517;-80
2022/11/02 11:43:55;;;;;;;24.65;6.78;;;;;;;;;;6241823;23;20012;-81
2022/11/02 11:46:21;;;;;;;31.77;6.28;;;;;;;;;;6240549;23;20004;-79
2022/11/02 11:48:52;;;;;;;31.67;7.00;;;;;;;;;;6214955;23;20355;-82
2022/11/02 11:51:42;;;;;;;29.63;7.00;;;;;;;;;;6219139;23;20023;-81
2022/11/02 11:54:18;;;;;;;30.08;6.30;;;;;;;;;;6193877;23;20008;-77
2022/11/02 11:56:43;;;;;;;31.42;6.53;;;;;;;;;;6239781;22;20008;-79
2022/11/02 11:59:21;;;;;;;43.30;6.40;;;;;;;;;;6246681;23;20004;-76
2022/11/02 12:01:47;;;;;;;56.05;6.55;;;;;;;;;;6241940;22;20239;-77
2022/11/02 12:04:12;;;;;;;42.33;6.38;;;;;;;;;;6239639;23;20388;-77
2022/11/02 12:06:56;;;;;;;33.90;9.05;;;;;;;;;;6239249;23;20027;-78
2022/11/02 12:09:40;;;;;;;35.80;9.43;;;;;;;;;;6239681;23;20004;-77
2022/11/02 12:12:36;;;;;;;31.05;9.30;;;;;;;;;;6239894;23;20000;-77
2022/11/02 12:15:23;;;;;;;28.65;7.20;;;;;;;;;;6238580;23;20365;-77
2022/11/02 12:17:58;;;;;;;41.17;7.55;;;;;;;;;;6243085;23;20320;-78
2022/11/02 12:20:47;;;;;;;31.63;10.98;;;;;;;;;;6244329;23;20004;-79
2022/11/02 12:23:36;;;;;;;31.90;10.68;;;;;;;;;;6216546;23;20526;-78
2022/11/02 12:26:01;;;;;;;38.40;12.82;;;;;;;;;;6240156;22;20063;-78
2022/11/02 12:29:01;;;;;;;41.75;14.98;;;;;;;;;;6241950;23;20385;-78
2022/11/02 12:31:40;;;;;;;38.50;14.77;;;;;;;;;;6239045;22;20032;-75
2022/11/02 12:34:44;;;;;;;52.95;16.80;;;;;;;;;;6235519;23;20469;-76
2022/11/02 12:37:28;;;;;;;65.10;22.50;;;;;;;;;;6233352;23;20104;-78
2022/11/02 12:39:59;;;;;;;77.80;24.08;;;;;;;;;;6239264;23;20007;-76
2022/11/02 12:42:33;;;;;;;59.55;23.25;;;;;;;;;;6236872;23;20050;-77
2022/11/02 12:45:23;;;;;;;49.60;20.02;;;;;;;;;;6211845;23;20015;-75
2022/11/02 12:47:51;;;;;;;;;;;;;;;;;;6238504;23;20000;-75
2022/11/02 12:50:48;;;;;;;40.13;14.00;;;;;;;;;;6240016;23;19916;-77
2022/11/02 12:53:39;;;;;;;47.72;13.90;;;;;;;;;;6238722;23;20351;-76
2022/11/02 12:56:06;;;;;;;49.47;12.57;;;;;;;;;;6237744;23;20093;-75
2022/11/02 12:58:39;;;;;;;34.05;9.75;;;;;;;;;;6220139;23;20015;-76
2022/11/02 13:01:25;;;;;;;66.22;15.90;;;;;;;;;;6238633;23;20032;-76
2022/11/02 13:03:59;;;;;;;31.40;11.52;;;;;;;;;;6238678;23;20091;-76
2022/11/02 13:06:38;;;;;;;38.55;10.82;;;;;;;;;;6241671;22;20046;-77
2022/11/02 13:09:23;;;;;;;46.28;11.30;;;;;;;;;;6214798;23;20006;-77
2022/11/02 13:11:56;;;;;;;35.83;11.10;;;;;;;;;;6240735;23;20018;-76
2022/11/02 13:14:21;;;;;;;24.60;9.32;;;;;;;;;;6216089;23;20000;-76
2022/11/02 13:17:32;;;;;;;32.05;9.45;;;;;;;;;;6241304;23;20050;-76
2022/11/02 13:20:05;;;;;;;32.35;9.50;;;;;;;;;;6196705;23;20008;-78
2022/11/02 13:22:34;;;;;;;27.73;10.52;;;;;;;;;;6216753;23;20000;-77
2022/11/02 13:25:11;;;;;;;52.13;11.18;;;;;;;;;;6241060;23;20000;-77
2022/11/02 13:27:40;;;;;;;38.45;12.50;;;;;;;;;;6238319;23;20079;-78
2022/11/02 13:30:13;;;;;;;47.15;13.70;;;;;;;;;;6214027;23;20034;-77
2022/11/02 13:32:48;;;;;;;38.95;12.77;;;;;;;;;;6241899;22;20004;-77
2022/11/02 13:35:35;;;;;;;37.47;13.13;;;;;;;;;;6239128;23;20417;-77
2022/11/02 13:38:04;;;;;;;43.25;12.88;;;;;;;;;;6247914;23;20004;-77
2022/11/02 13:40:33;;;;;;;41.15;12.68;;;;;;;;;;6242189;23;20000;-77
2022/11/02 13:43:17;;;;;;;29.70;10.90;;;;;;;;;;6240468;23;20010;-77
2022/11/02 13:46:10;;;;;;;33.30;12.98;;;;;;;;;;6214057;23;20007;-76
2022/11/02 13:48:50;;;;;;;38.42;15.50;;;;;;;;;;6230180;23;20376;-78
2022/11/02 13:51:28;;;;;;;26.30;13.13;;;;;;;;;;6190254;23;20168;-77
2022/11/02 13:53:57;;;;;;;27.95;12.68;;;;;;;;;;6239003;23;20024;-77
2022/11/02 13:56:25;;;;;;;27.98;12.20;;;;;;;;;;6217304;23;20010;-78
2022/11/02 13:59:02;;;;;;;29.20;12.85;;;;;;;;;;6219644;23;20415;-77
2022/11/02 14:01:29;;;;;;;28.20;13.20;;;;;;;;;;6218210;23;20008;-77
2022/11/02 14:04:01;;;;;;;24.60;12.50;;;;;;;;;;6217623;23;20032;-77
2022/11/02 14:06:26;;;;;;;32.72;12.88;;;;;;;;;;6242707;23;20004;-76
2022/11/02 14:08:54;;;;;;;39.03;13.35;;;;;;;;;;6241785;23;20004;-76
2022/11/02 14:11:19;;;;;;;33.13;13.23;;;;;;;;;;6243800;22;20001;-76
2022/11/02 14:13:51;;;;;;;35.50;12.98;;;;;;;;;;6244234;23;20039;-76
2022/11/02 14:16:43;;;;;;;31.73;12.73;;;;;;;;;;6244194;23;20328;-77
2022/11/02 14:19:15;;;;;;;36.08;13.57;;;;;;;;;;6242332;23;20000;-77
2022/11/02 14:21:49;;;;;;;34.55;13.85;;;;;;;;;;6243602;22;20000;-76
2022/11/02 14:24:33;;;;;;;28.33;13.30;;;;;;;;;;6243722;22;20358;-76
2022/11/02 14:26:59;;;;;;;31.20;13.25;;;;;;;;;;6244128;23;20071;-76
2022/11/02 14:29:46;;;;;;;32.58;13.77;;;;;;;;;;6243284;22;20107;-76
2022/11/02 14:32:20;;;;;;;31.75;14.25;;;;;;;;;;6243678;23;20019;-77
2022/11/02 14:34:48;;;;;;;33.40;14.18;;;;;;;;;;6242774;23;20065;-76
2022/11/02 14:37:24;;;;;;;37.65;14.10;;;;;;;;;;6252540;23;20014;-78
2022/11/02 14:40:04;;;;;;;33.35;14.35;;;;;;;;;;6244729;23;20079;-79
2022/11/02 14:42:50;;;;;;;;;;;;;;;;;;6243426;23;20424;-78
2022/11/02 14:45:42;;;;;;;37.60;14.02;;;;;;;;;;6244652;22;19908;-79
2022/11/02 14:48:16;;;;;;;40.38;13.57;;;;;;;;;;6243929;23;20031;-79
2022/11/02 14:50:57;;;;;;;37.05;15.38;;;;;;;;;;6217823;23;20013;-78
2022/11/02 14:53:24;;;;;;;38.05;15.80;;;;;;;;;;6242201;23;20004;-78
2022/11/02 14:55:51;;;;;;;36.08;15.93;;;;;;;;;;6253542;22;20004;-80
2022/11/02 14:58:19;;;;;;;40.63;16.63;;;;;;;;;;6246530;23;20065;-78
2022/11/02 15:00:47;;;;;;;37.33;18.17;;;;;;;;;;6242358;23;20493;-78
2022/11/02 15:03:25;;;;;;;46.00;19.75;;;;;;;;;;6243735;23;20075;-78
2022/11/02 15:06:21;;;;;;;51.70;19.75;;;;;;;;;;6243139;22;20007;-78
2022/11/02 15:08:53;;;;;;;47.28;14.48;;;;;;;;;;6239871;23;20004;-79
2022/11/02 15:11:41;;;;;;;32.10;11.57;;;;;;;;;;6241861;23;20008;-77
2022/11/02 15:14:34;;;;;;;18.88;9.48;;;;;;;;;;6244207;23;20383;-78
2022/11/02 15:17:01;;;;;;;27.52;9.43;;;;;;;;;;6249099;23;20339;-77
2022/11/02 15:19:45;;;;;;;17.70;8.38;;;;;;;;;;6243340;22;20001;-77
2022/11/02 15:22:46;;;;;;;21.40;8.48;;;;;;;;;;6242421;23;20000;-78
2022/11/02 15:25:26;;;;;;;23.33;7.88;;;;;;;;;;6243288;22;20008;-77
2022/11/02 15:27:54;;;;;;;25.17;8.65;;;;;;;;;;6242208;23;20079;-77
2022/11/02 15:30:20;;;;;;;30.80;8.52;;;;;;;;;;6216966;23;20000;-77
2022/11/02 15:33:04;;;;;;;26.35;7.95;;;;;;;;;;6216200;23;20004;-77
2022/11/02 15:35:32;;;;;;;27.48;9.82;;;;;;;;;;6247084;23;20087;-77
2022/11/02 15:37:59;;;;;;;34.88;9.23;;;;;;;;;;6245087;22;20007;-78
2022/11/02 15:40:27;;;;;;;29.05;9.25;;;;;;;;;;6216355;23;20081;-76
2022/11/02 15:43:18;;;;;;;25.00;8.65;;;;;;;;;;6217361;23;20004;-76
2022/11/02 15:45:47;;;;;;;29.30;8.73;;;;;;;;;;6241888;23;20008;-76
2022/11/02 15:48:48;;;;;;;30.95;8.52;;;;;;;;;;6241504;22;20004;-76
2022/11/02 15:51:36;;;;;;;27.65;9.18;;;;;;;;;;6238813;23;20028;-77
2022/11/02 15:54:12;;;;;;;24.67;8.40;;;;;;;;;;6239447;23;20008;-75
2022/11/02 15:56:53;;;;;;;27.05;9.15;;;;;;;;;;6239529;23;20088;-76
2022/11/02 15:59:57;;;;;;;26.23;8.75;;;;;;;;;;6239508;23;20000;-76
2022/11/02 16:02:30;;;;;;;22.85;9.00;;;;;;;;;;6148205;23;20015;-76